Terminal Aerodrome Forecast
Issued by NWS

Home | Current Version | Previous Version | Graphics & Text | Print | Product List | Glossary On
Versions: 1 2 3 4 5 6 7 8 9 10 11 12 13 14 15 16 17 18 19 20 21 22 23 24 25
730
FTUS43 KLOT 191453 AAA
TAFORD
TAF AMD
KORD 191453Z 1915/2018 VRB02KT P6SM FEW250
     FM192000 08007KT P6SM SCT250
     FM200100 10005KT P6SM SCT250
     FM201000 13004KT 3SM BR SCT006 BKN250
      TEMPO 2012/2015 1 1/2SM BR SCT004 OVC007
     FM201600 16011KT P6SM SCT008 BKN035 OVC250=

USA.gov is the U.S. government's official web portal to all federal, state and local government web resources and services.